Time;durP1;ratioP1;P1;durP2;ratioP2;P2;SDS_P1;SDS_P2;PMS_P1;PMS_P2;Temp;Humidity;BMP_temperature;BMP_pressure;BME280_temperature;BME280_humidity;BME280_pressure;Samples;Min_cycle;Max_cycle;Signal;HPM_P1;HPM_P2
2022/10/07 00:02:16;;;;;;;50.70;28.80;;;;;;;5.46;77.71;101821.54;2088960;82;28790;-66
2022/10/07 00:05:18;;;;;;;48.55;28.25;;;;;;;5.42;77.75;101816.66;2099933;83;31946;-68
2022/10/07 00:08:19;;;;;;;51.92;28.55;;;;;;;5.40;77.75;101822.88;2069363;83;33107;-68
2022/10/07 00:11:27;;;;;;;52.98;28.55;;;;;;;5.36;77.78;101819.36;2078818;83;30645;-67
2022/10/07 00:14:28;;;;;;;52.13;29.95;;;;;;;5.33;77.75;101816.24;2070779;85;27816;-66
2022/10/07 00:17:29;;;;;;;55.30;30.10;;;;;;;5.31;77.86;101816.69;2081993;85;29146;-66
2022/10/07 00:20:30;;;;;;;49.53;28.85;;;;;;;5.30;77.95;101816.25;2082680;85;30538;-67
2022/10/07 00:23:32;;;;;;;47.60;25.50;;;;;;;5.28;77.88;101816.73;2026996;84;33086;-69
2022/10/07 00:26:36;;;;;;;38.92;21.23;;;;;;;5.27;77.98;101818.94;2051623;85;29382;-67
2022/10/07 00:29:37;;;;;;;35.78;19.67;;;;;;;5.24;78.23;101814.95;2066054;85;27720;-66
2022/10/07 00:32:38;;;;;;;38.25;21.95;;;;;;;5.25;78.40;101821.14;2076438;85;28712;-65
2022/10/07 00:35:39;;;;;;;38.85;20.68;;;;;;;5.24;78.20;101814.95;2067456;85;32219;-66
2022/10/07 00:38:41;;;;;;;37.90;21.40;;;;;;;5.23;78.09;101814.94;2096784;83;33127;-66
2022/10/07 00:41:50;;;;;;;36.88;19.40;;;;;;;5.20;78.03;101807.88;2076907;84;30504;-66
2022/10/07 00:44:51;;;;;;;34.80;19.55;;;;;;;5.19;77.98;101811.88;2085492;83;27687;-67
2022/10/07 00:47:53;;;;;;;39.70;23.27;;;;;;;5.16;77.94;101804.35;2060424;84;29236;-67
2022/10/07 00:50:56;;;;;;;37.78;19.73;;;;;;;5.14;77.99;101811.44;2054624;84;31052;-66
2022/10/07 00:53:58;;;;;;;37.05;19.55;;;;;;;5.10;78.03;101808.34;2071622;85;33011;-66
2022/10/07 00:57:00;;;;;;;33.20;19.12;;;;;;;5.07;78.18;101804.36;2074767;85;30061;-70
2022/10/07 01:00:04;;;;;;;33.35;18.45;;;;;;;5.06;78.14;101797.28;2082962;84;27636;-66
2022/10/07 01:03:05;;;;;;;32.67;18.73;;;;;;;5.02;78.23;101797.73;2066767;85;28688;-66
2022/10/07 01:06:09;;;;;;;29.90;18.42;;;;;;;5.01;78.25;101796.42;2072887;84;32234;-66
2022/10/07 01:09:11;;;;;;;36.60;18.90;;;;;;;5.00;78.26;101795.52;2074751;84;33904;-67
2022/10/07 01:12:41;;;;;;;29.00;17.95;;;;;;;4.97;78.25;101791.54;2058680;85;29443;-66
2022/10/07 01:16:03;;;;;;;33.83;18.80;;;;;;;4.96;78.24;101795.12;2070534;84;27712;-66
2022/10/07 01:19:41;;;;;;;35.90;22.10;;;;;;;4.93;78.29;101791.56;2021018;87;28435;-68
2022/10/07 01:23:13;;;;;;;36.65;20.80;;;;;;;4.90;78.43;101791.13;2005889;86;31517;-65
2022/10/07 01:26:47;;;;;;;34.75;20.27;;;;;;;4.89;78.45;101784.05;1998577;88;33597;-65
2022/10/07 01:29:56;;;;;;;40.28;24.95;;;;;;;4.85;78.31;101783.19;1997484;88;29301;-65
2022/10/07 01:33:03;;;;;;;36.30;21.77;;;;;;;4.81;78.42;101781.84;2009892;87;27809;-65
2022/10/07 01:36:12;;;;;;;39.13;22.90;;;;;;;4.78;78.43;101770.79;1984957;88;29728;-66
2022/10/07 01:39:15;;;;;;;40.33;24.57;;;;;;;4.76;78.38;101776.55;2015719;87;30985;-65
2022/10/07 01:42:17;;;;;;;40.28;23.10;;;;;;;4.74;78.47;101766.36;2009682;87;33354;-65
2022/10/07 01:45:21;;;;;;;36.98;23.18;;;;;;;4.71;78.41;101764.61;1988428;87;30110;-65
2022/10/07 01:48:23;;;;;;;37.98;22.87;;;;;;;4.70;78.39;101768.61;2012571;87;27814;-65
2022/10/07 01:51:27;;;;;;;37.53;24.30;;;;;;;4.67;78.32;101766.82;2013220;88;28698;-65
2022/10/07 01:54:37;;;;;;;41.35;25.85;;;;;;;4.66;78.37;101766.38;2011844;86;31085;-66
2022/10/07 01:57:47;;;;;;;35.88;22.87;;;;;;;4.63;78.42;101762.85;2070532;83;33928;-65
2022/10/07 02:01:06;;;;;;;40.88;24.90;;;;;;;4.60;78.36;101757.11;2048227;85;29768;-68
2022/10/07 02:04:37;;;;;;;51.85;30.90;;;;;;;4.58;78.39;101759.31;2076667;83;28364;-67
2022/10/07 02:08:20;;;;;;;44.65;28.45;;;;;;;4.55;78.94;101756.23;2077707;84;29107;-65
2022/10/07 02:11:31;;;;;;;50.78;27.35;;;;;;;4.55;78.83;101753.57;2099081;83;31090;-67
2022/10/07 02:14:44;;;;;;;47.78;29.75;;;;;;;4.52;78.75;101749.59;2084518;83;34142;-65
2022/10/07 02:17:51;;;;;;;50.60;28.73;;;;;;;4.50;78.77;101744.30;2090893;83;30003;-70
2022/10/07 02:20:53;;;;;;;51.63;29.20;;;;;;;4.47;78.80;101740.31;2082903;83;27729;-66
2022/10/07 02:23:56;;;;;;;53.10;31.57;;;;;;;4.46;78.86;101745.63;2098570;83;28639;-68
2022/10/07 02:27:02;;;;;;;47.08;29.65;;;;;;;4.45;79.17;101742.08;2097367;83;31671;-67
2022/10/07 02:30:09;;;;;;;44.08;27.27;;;;;;;4.47;79.31;101736.33;2108579;83;32984;-67
2022/10/07 02:33:11;;;;;;;45.12;27.25;;;;;;;4.46;79.02;101739.87;2097466;83;29415;-68
2022/10/07 02:36:22;;;;;;;48.73;27.93;;;;;;;4.44;78.92;101731.48;2086603;83;27649;-65
2022/10/07 02:39:23;;;;;;;44.88;27.30;;;;;;;4.43;79.00;101734.56;2044947;84;29929;-65
2022/10/07 02:42:33;;;;;;;42.40;27.55;;;;;;;4.41;79.21;101727.94;2084512;84;31076;-67
2022/10/07 02:45:44;;;;;;;42.08;27.60;;;;;;;4.40;79.08;101730.15;2067546;85;33675;-65
2022/10/07 02:48:58;;;;;;;42.90;27.37;;;;;;;4.38;79.02;101734.57;2040712;84;29737;-65
2022/10/07 02:52:09;;;;;;;40.75;26.07;;;;;;;4.36;78.95;101728.84;2083633;84;27703;-65
2022/10/07 02:55:15;;;;;;;43.08;26.37;;;;;;;4.34;78.96;101734.13;2038521;84;29590;-66
2022/10/07 02:58:17;;;;;;;46.15;27.02;;;;;;;4.32;79.10;101727.92;2056301;84;31044;-66
2022/10/07 03:01:24;;;;;;;43.65;26.80;;;;;;;4.31;79.26;101729.27;2062097;85;34171;-67
2022/10/07 03:04:25;;;;;;;38.00;25.40;;;;;;;4.31;79.59;101725.29;2050180;85;29545;-68
2022/10/07 03:07:27;;;;;;;35.75;24.32;;;;;;;4.30;79.65;101717.79;2065447;85;27753;-67
2022/10/07 03:10:29;;;;;;;41.65;25.17;;;;;;;4.30;79.49;101716.46;2040878;85;29053;-66
2022/10/07 03:13:30;;;;;;;40.40;24.32;;;;;;;4.29;79.30;101721.75;2071377;85;31441;-65
2022/10/07 03:16:31;;;;;;;37.80;22.98;;;;;;;4.27;79.24;101716.45;2058897;85;33047;-66
2022/10/07 03:19:33;;;;;;;40.73;25.37;;;;;;;4.24;79.17;101712.47;2071230;85;29912;-66
2022/10/07 03:22:34;;;;;;;42.00;25.10;;;;;;;4.22;79.17;101716.89;2064504;85;27827;-66
2022/10/07 03:25:35;;;;;;;36.80;23.73;;;;;;;4.19;79.46;101713.81;2061012;85;28745;-65
2022/10/07 03:28:37;;;;;;;35.38;22.65;;;;;;;4.18;79.24;101706.73;2061042;83;32205;-65
2022/10/07 03:31:40;;;;;;;37.78;23.75;;;;;;;4.16;79.13;101704.95;2069533;85;34190;-67
2022/10/07 03:34:41;;;;;;;35.20;23.02;;;;;;;4.13;79.11;101702.33;2064264;85;30041;-66
2022/10/07 03:37:42;;;;;;;52.65;27.65;;;;;;;4.10;79.09;101704.09;2101606;83;27734;-65
2022/10/07 03:40:44;;;;;;;43.15;25.23;;;;;;;4.09;79.12;101700.09;2100577;83;28496;-65
2022/10/07 03:43:45;;;;;;;61.30;30.23;;;;;;;4.07;79.15;101701.43;2097674;83;31912;-65
2022/10/07 03:46:50;;;;;;;51.18;29.45;;;;;;;4.06;79.42;101694.78;2085560;83;33435;-66
2022/10/07 03:49:52;;;;;;;;;;;;;;;4.06;79.45;101696.10;2103136;83;29746;-67
2022/10/07 03:52:53;;;;;;;45.15;25.75;;;;;;;4.05;79.54;101692.58;2090620;83;27737;-66
2022/10/07 03:55:55;;;;;;;55.52;28.87;;;;;;;4.02;79.39;101693.03;2087677;83;29950;-65
2022/10/07 03:58:56;;;;;;;48.30;28.02;;;;;;;3.99;79.44;101687.27;2099372;83;30943;-66
2022/10/07 04:01:57;;;;;;;48.78;26.85;;;;;;;3.97;79.46;101690.39;2102854;83;33421;-65
2022/10/07 04:04:58;;;;;;;51.45;29.52;;;;;;;3.95;79.32;101685.52;2097639;83;29220;-65
2022/10/07 04:08:00;;;;;;;69.47;34.43;;;;;;;3.95;79.35;101678.89;2077232;85;27776;-65
2022/10/07 04:11:03;;;;;;;62.88;33.92;;;;;;;3.94;79.67;101677.13;2065804;85;28434;-65
2022/10/07 04:14:04;;;;;;;68.42;35.65;;;;;;;3.93;79.68;101674.90;2068883;85;33251;-65
2022/10/07 04:17:05;;;;;;;55.23;33.00;;;;;;;3.95;79.82;101673.59;2071301;85;33412;-66
2022/10/07 04:20:08;;;;;;;58.70;31.65;;;;;;;3.96;79.96;101672.71;2062545;85;29764;-66
2022/10/07 04:23:10;;;;;;;54.50;30.90;;;;;;;3.98;80.15;101668.72;2072119;85;27684;-65
2022/10/07 04:26:12;;;;;;;60.30;34.25;;;;;;;4.00;80.05;101663.84;2066765;85;29946;-67
2022/10/07 04:29:14;;;;;;;65.05;34.45;;;;;;;4.02;80.28;101669.17;2061251;84;31505;-66
2022/10/07 04:32:18;;;;;;;65.65;36.03;;;;;;;4.03;80.26;101662.98;2071417;85;33949;-66
2022/10/07 04:35:21;;;;;;;57.83;33.85;;;;;;;4.04;80.41;101662.10;2074139;85;30587;-67
2022/10/07 04:38:22;;;;;;;52.40;32.45;;;;;;;4.05;80.38;101653.27;1991135;87;27752;-66
2022/10/07 04:41:23;;;;;;;54.15;32.30;;;;;;;4.05;80.23;101649.29;2020148;86;29549;-66
2022/10/07 04:44:24;;;;;;;53.60;29.87;;;;;;;4.05;80.22;101650.61;2012180;88;31518;-67
2022/10/07 04:47:25;;;;;;;50.75;30.05;;;;;;;4.05;80.26;101647.50;2022963;86;33404;-66
2022/10/07 04:50:27;;;;;;;49.53;29.25;;;;;;;4.05;80.11;101642.66;2070963;85;29683;-66
2022/10/07 04:53:30;;;;;;;47.05;28.85;;;;;;;4.04;80.11;101648.84;2047105;85;27638;-67
2022/10/07 04:56:32;;;;;;;51.23;29.55;;;;;;;4.03;80.09;101649.27;2062647;84;29419;-66
2022/10/07 04:59:35;;;;;;;48.25;28.10;;;;;;;4.02;80.21;101649.28;2062951;85;31723;-66
2022/10/07 05:02:36;;;;;;;56.18;29.23;;;;;;;4.02;80.21;101654.13;2071647;85;32982;-66
2022/10/07 05:05:45;;;;;;;48.52;27.27;;;;;;;4.04;80.40;101645.73;2076933;83;29551;-66
2022/10/07 05:08:47;;;;;;;44.27;27.17;;;;;;;4.06;80.42;101643.06;2064118;85;27935;-66
2022/10/07 05:11:54;;;;;;;43.75;26.40;;;;;;;4.08;80.33;101646.18;2071898;85;30022;-66
2022/10/07 05:14:55;;;;;;;44.38;26.02;;;;;;;4.11;80.32;101651.91;2076741;85;31705;-65
2022/10/07 05:17:57;;;;;;;42.90;26.48;;;;;;;4.13;80.21;101646.63;2062173;84;33362;-66
2022/10/07 05:20:58;;;;;;;49.23;27.85;;;;;;;4.14;80.27;101643.96;2062702;84;29378;-66
2022/10/07 05:24:00;;;;;;;48.48;28.45;;;;;;;4.18;80.52;101646.16;2068723;84;27552;-66
2022/10/07 05:27:01;;;;;;;46.92;26.65;;;;;;;4.20;80.49;101638.66;2097545;83;29883;-66
2022/10/07 05:30:03;;;;;;;46.13;27.02;;;;;;;4.23;80.49;101635.11;2086992;83;31547;-66
2022/10/07 05:33:06;;;;;;;44.93;26.68;;;;;;;4.26;80.52;101637.77;2097417;83;33775;-66
2022/10/07 05:36:11;;;;;;;46.10;27.00;;;;;;;4.31;80.57;101638.61;2105829;83;30257;-66
2022/10/07 05:39:12;;;;;;;46.77;25.23;;;;;;;4.34;80.55;101633.77;2094330;83;28208;-66
2022/10/07 05:42:13;;;;;;;45.75;25.08;;;;;;;4.38;80.73;101634.20;2098080;83;29339;-65
2022/10/07 05:45:15;;;;;;;45.45;25.12;;;;;;;4.40;80.89;101627.09;2100797;83;31032;-66
2022/10/07 05:48:16;;;;;;;56.30;26.80;;;;;;;4.43;81.00;101627.09;2089625;83;32994;-67
2022/10/07 05:51:23;;;;;;;42.58;24.65;;;;;;;4.46;81.05;101621.78;2090752;83;29959;-66
2022/10/07 05:54:24;;;;;;;49.50;27.25;;;;;;;4.50;81.17;101626.20;2073483;83;27731;-66
2022/10/07 05:57:25;;;;;;;44.00;23.30;;;;;;;4.56;81.33;101621.31;2078391;84;29888;-66
2022/10/07 06:00:27;;;;;;;41.45;23.90;;;;;;;4.64;81.43;101623.94;2080686;85;31544;-66
2022/10/07 06:03:28;;;;;;;50.03;25.12;;;;;;;4.70;81.55;101626.13;2049699;84;33362;-65
2022/10/07 06:06:30;;;;;;;44.25;24.18;;;;;;;4.79;81.76;101621.69;2076177;84;30000;-66
2022/10/07 06:13:09;;;;;;;53.55;25.12;;;;;;;4.94;81.81;101618.06;2058213;84;30083;-66
2022/10/07 06:16:12;;;;;;;46.53;24.98;;;;;;;5.05;81.93;101614.89;2075941;83;32339;-67
2022/10/07 06:19:21;;;;;;;48.70;25.62;;;;;;;5.16;82.00;101609.53;2078989;85;33014;-66
2022/10/07 06:22:16;;;;;;;51.05;25.80;;;;;;;5.28;82.07;101609.91;2080394;83;29342;-66
2022/10/07 06:25:18;;;;;;;53.23;27.62;;;;;;;5.38;82.13;101610.73;2106650;83;27625;-66
2022/10/07 06:28:19;;;;;;;52.23;28.15;;;;;;;5.48;82.24;101616.40;2108199;83;29433;-66
2022/10/07 06:31:23;;;;;;;50.67;26.02;;;;;;;5.58;82.35;101613.23;2100469;83;31641;-67
2022/10/07 06:34:24;;;;;;;46.90;26.00;;;;;;;5.68;82.46;101612.28;2091810;83;35614;-66
2022/10/07 06:37:25;;;;;;;53.35;28.35;;;;;;;5.82;82.53;101612.14;2110498;83;29801;-66
2022/10/07 06:40:26;;;;;;;59.38;27.52;;;;;;;5.97;82.61;101609.81;2085039;84;27868;-66
2022/10/07 06:43:32;;;;;;;49.60;26.52;;;;;;;6.14;82.75;101606.14;2101404;83;29440;-66
2022/10/07 06:46:34;;;;;;;45.63;25.45;;;;;;;6.31;82.76;101604.62;2093453;83;31066;-66
2022/10/07 06:49:35;;;;;;;53.25;25.97;;;;;;;6.50;83.17;101598.20;2106800;83;33409;-66
2022/10/07 06:52:36;;;;;;;52.70;27.82;;;;;;;6.73;83.13;101603.70;2076163;83;30515;-66
2022/10/07 06:55:37;;;;;;;44.65;27.30;;;;;;;6.91;82.90;101604.38;2078001;84;27816;-66
2022/10/07 06:58:39;;;;;;;46.55;25.65;;;;;;;7.12;82.84;101605.84;2075523;85;29974;-67
2022/10/07 07:01:40;;;;;;;43.33;25.48;;;;;;;7.35;82.97;101601.98;2072404;84;31625;-67
2022/10/07 07:04:42;;;;;;;40.08;24.90;;;;;;;7.65;83.15;101602.39;2066025;85;33561;-67
2022/10/07 07:07:43;;;;;;;46.85;25.25;;;;;;;7.95;83.19;101590.77;2066402;85;29749;-66
2022/10/07 07:10:45;;;;;;;38.90;22.40;;;;;;;8.27;82.94;101591.52;2054663;85;27689;-66
2022/10/07 07:13:46;;;;;;;31.45;20.12;;;;;;;8.59;82.91;101594.48;2089441;84;29141;-66
2022/10/07 07:16:48;;;;;;;27.85;18.40;;;;;;;8.92;82.74;101587.99;2086025;84;32301;-66
2022/10/07 07:19:49;;;;;;;26.07;18.25;;;;;;;9.24;82.25;101581.03;2071372;85;34222;-67
2022/10/07 07:22:51;;;;;;;27.00;18.20;;;;;;;9.51;82.33;101584.84;2076155;83;29979;-66
2022/10/07 07:25:53;;;;;;;24.12;17.82;;;;;;;9.81;82.16;101587.67;2097778;82;28047;-66
2022/10/07 07:29:01;;;;;;;22.15;17.35;;;;;;;10.08;81.30;101580.30;2097204;83;30091;-66
2022/10/07 07:32:03;;;;;;;25.05;17.48;;;;;;;10.34;81.45;101575.09;2110099;83;31083;-67
2022/10/07 07:38:20;;;;;;;24.52;16.48;;;;;;;10.96;80.46;101574.26;2176982;80;29712;-67
2022/10/07 07:41:26;;;;;;;25.23;17.23;;;;;;;11.20;80.08;101570.80;2134924;80;27864;-67
2022/10/07 07:44:28;;;;;;;23.40;17.87;;;;;;;11.45;79.94;101567.78;2139605;81;29506;-67
2022/10/07 07:47:30;;;;;;;24.95;16.80;;;;;;;11.65;79.22;101563.97;2147859;80;32437;-67
2022/10/07 07:50:32;;;;;;;25.65;17.98;;;;;;;11.83;79.17;101563.80;2144987;80;33033;-67
2022/10/07 07:53:36;;;;;;;23.42;16.55;;;;;;;12.05;79.22;101555.03;2132602;81;30497;-67
2022/10/07 07:56:38;;;;;;;24.50;15.20;;;;;;;12.39;79.62;101547.57;2135500;81;27644;-66
2022/10/07 07:59:39;;;;;;;23.50;15.90;;;;;;;12.70;78.73;101547.27;2180389;80;28624;-67
2022/10/07 08:02:42;;;;;;;20.45;14.68;;;;;;;12.98;78.82;101542.63;2136310;81;31451;-66
2022/10/07 08:05:43;;;;;;;20.92;15.13;;;;;;;13.21;77.38;101537.20;2183010;80;33799;-66
2022/10/07 08:08:44;;;;;;;20.50;16.02;;;;;;;13.36;77.15;101533.48;2141805;81;29141;-66
2022/10/07 08:11:46;;;;;;;20.72;16.02;;;;;;;13.41;76.76;101533.31;2129544;82;28617;-66
2022/10/07 08:14:47;;;;;;;20.15;13.60;;;;;;;13.45;76.76;101521.48;2168085;81;30909;-67
2022/10/07 08:17:49;;;;;;;22.95;13.45;;;;;;;13.51;76.74;101522.55;2162687;79;31067;-66
2022/10/07 08:21:03;;;;;;;20.88;14.03;;;;;;;13.57;76.24;101518.75;2167293;81;33410;-66
2022/10/07 08:24:07;;;;;;;18.73;12.90;;;;;;;13.58;76.04;101515.08;2139662;81;33803;-67
2022/10/07 08:27:09;;;;;;;16.10;11.55;;;;;;;13.56;75.90;101507.57;2127966;81;27916;-67
2022/10/07 08:30:12;;;;;;;16.30;12.45;;;;;;;13.49;75.35;101508.27;2153093;80;29909;-67
2022/10/07 08:33:13;;;;;;;16.02;12.68;;;;;;;13.31;75.54;101479.84;2119109;82;31814;-66
2022/10/07 08:36:18;;;;;;;21.17;13.48;;;;;;;13.46;75.70;101505.73;2124468;81;33324;-67
2022/10/07 08:39:19;;;;;;;23.95;14.47;;;;;;;13.49;75.10;101501.55;2154387;81;29400;-67
2022/10/07 08:42:34;;;;;;;21.93;14.85;;;;;;;13.48;75.38;101504.72;2151372;81;27683;-67
2022/10/07 08:45:35;;;;;;;24.93;14.57;;;;;;;13.54;75.23;101506.75;2136205;82;29111;-66
2022/10/07 08:48:38;;;;;;;27.02;16.90;;;;;;;13.60;75.25;101496.59;2188895;80;31562;-66
2022/10/07 08:51:53;;;;;;;22.98;16.48;;;;;;;13.63;75.27;101488.84;2189678;80;34331;-66
2022/10/07 08:54:54;;;;;;;32.30;17.37;;;;;;;13.73;75.06;101488.87;2191458;80;29471;-67
2022/10/07 08:58:19;;;;;;;30.52;18.98;;;;;;;13.76;75.05;101481.11;2188061;80;28494;-67
2022/10/07 09:01:57;;;;;;;26.20;16.82;;;;;;;13.81;74.92;101479.10;2169374;80;33197;-66
2022/10/07 09:05:28;;;;;;;27.87;17.62;;;;;;;13.79;74.87;101460.30;2200921;80;32452;-65
2022/10/07 09:08:36;;;;;;;26.90;16.48;;;;;;;13.91;74.75;101471.00;2199424;79;33797;-67
2022/10/07 09:11:40;;;;;;;23.90;16.50;;;;;;;13.98;74.65;101470.25;2210214;80;29984;-66
2022/10/07 09:14:44;;;;;;;27.17;16.27;;;;;;;13.96;74.57;101462.70;2191276;80;27712;-67
2022/10/07 09:17:59;;;;;;;26.12;14.63;;;;;;;14.09;74.79;101463.89;2174767;80;28697;-67
2022/10/07 09:21:04;;;;;;;17.40;12.18;;;;;;;14.18;74.85;101457.20;2182137;79;31027;-67
2022/10/07 09:24:27;;;;;;;16.32;10.28;;;;;;;14.32;74.54;101452.53;2165226;80;33025;-67
2022/10/07 09:27:29;;;;;;;19.62;9.05;;;;;;;14.46;74.45;101444.25;2209439;80;30197;-66
2022/10/07 09:30:31;;;;;;;18.42;9.20;;;;;;;14.66;73.45;101440.13;2181586;80;27713;-67
2022/10/07 09:33:37;;;;;;;11.78;7.17;;;;;;;14.81;74.41;101428.22;2157275;82;29270;-66
2022/10/07 09:37:20;;;;;;;16.32;7.80;;;;;;;15.02;73.95;101428.52;2176370;80;31114;-66
2022/10/07 09:44:20;;;;;;;17.45;8.03;;;;;;;15.29;72.51;101419.09;2153645;80;30411;-65
2022/10/07 09:47:28;;;;;;;14.58;7.60;;;;;;;15.36;72.39;101407.49;2177519;79;27753;-65
2022/10/07 09:50:37;;;;;;;13.48;6.70;;;;;;;15.49;72.81;101404.54;2193883;79;28672;-66
2022/10/07 09:54:02;;;;;;;12.47;7.35;;;;;;;15.64;71.28;101395.63;2059402;83;46451;-65
2022/10/07 09:57:05;;;;;;;10.53;6.12;;;;;;;15.89;71.30;101396.16;2079989;84;33025;-67
2022/10/07 10:00:21;;;;;;;11.63;6.35;;;;;;;16.10;71.44;101393.64;2077518;84;29324;-66
2022/10/07 10:03:34;;;;;;;9.95;6.10;;;;;;;16.29;71.71;101387.20;2091073;83;27708;-66
2022/10/07 10:06:36;;;;;;;11.93;7.17;;;;;;;16.49;70.58;101387.88;2177861;80;28786;-67
2022/10/07 10:09:37;;;;;;;9.40;6.25;;;;;;;16.62;70.79;101373.17;2200985;80;31399;-66
2022/10/07 10:12:46;;;;;;;10.03;6.40;;;;;;;16.75;70.47;101370.14;2182636;80;33422;-67
2022/10/07 10:15:48;;;;;;;11.83;5.97;;;;;;;16.89;69.67;101369.34;2147281;81;29558;-67
2022/10/07 10:18:57;;;;;;;13.22;7.08;;;;;;;17.03;70.06;101363.61;2140994;81;27648;-67
2022/10/07 10:21:59;;;;;;;11.70;7.10;;;;;;;17.10;68.71;101358.23;2142502;80;28654;-66
2022/10/07 10:28:58;;;;;;;11.80;7.17;;;;;;;17.13;68.09;101348.08;2153452;81;34314;-66
2022/10/07 10:32:06;;;;;;;10.95;7.42;;;;;;;17.14;68.66;101353.88;2166443;81;29803;-67
2022/10/07 10:35:39;;;;;;;10.05;7.47;;;;;;;17.18;68.53;101346.44;2157209;80;27703;-66
2022/10/07 10:39:03;;;;;;;14.38;8.08;;;;;;;17.15;68.32;101345.27;2152046;81;28223;-67
2022/10/07 10:42:08;;;;;;;11.08;6.78;;;;;;;17.18;68.12;101336.96;2093905;83;32279;-67
2022/10/07 10:45:42;;;;;;;;;;;;;;;17.17;67.57;101323.03;2170167;81;33028;-67
2022/10/07 10:49:09;;;;;;;14.68;8.48;;;;;;;17.15;67.51;101316.37;2160067;80;29958;-68
2022/10/07 10:52:43;;;;;;;12.95;8.05;;;;;;;17.18;67.18;101304.96;2190296;80;28160;-68
2022/10/07 10:56:14;;;;;;;20.97;8.85;;;;;;;17.29;66.41;101297.03;2169306;80;29938;-67
2022/10/07 10:59:36;;;;;;;15.00;7.55;;;;;;;17.44;67.35;101294.72;2172467;81;31070;-67
2022/10/07 11:02:59;;;;;;;16.40;8.18;;;;;;;17.60;66.64;101289.22;2179019;80;32996;-69
2022/10/07 11:06:05;;;;;;;11.57;7.78;;;;;;;17.75;67.28;101284.64;2153403;81;29374;-67
2022/10/07 11:09:20;;;;;;;13.15;7.60;;;;;;;17.85;66.88;101282.70;2189576;80;27788;-67
2022/10/07 11:12:33;;;;;;;16.77;8.00;;;;;;;17.89;66.41;101266.14;2134425;82;29670;-68
2022/10/07 11:15:42;;;;;;;13.50;8.48;;;;;;;17.91;66.36;101259.25;2159061;81;31114;-68
2022/10/07 11:19:06;;;;;;;11.68;8.28;;;;;;;17.87;66.08;101253.16;2164564;81;33023;-69
2022/10/07 11:22:15;;;;;;;20.25;9.40;;;;;;;17.84;65.75;101249.80;2157898;81;30287;-68
2022/10/07 11:25:41;;;;;;;11.88;8.00;;;;;;;17.78;65.74;101247.00;2109030;81;27842;-68
2022/10/07 11:28:44;;;;;;;15.85;8.05;;;;;;;17.72;65.93;101238.76;2109787;83;29420;-68
2022/10/07 11:32:03;;;;;;;17.00;9.68;;;;;;;17.71;66.17;101235.66;2152146;82;31492;-67
2022/10/07 11:35:36;;;;;;;14.18;8.25;;;;;;;17.74;65.83;101225.12;2152631;82;34268;-68
2022/10/07 11:38:39;;;;;;;11.63;7.20;;;;;;;17.71;65.52;101215.33;2150148;82;29265;-68
2022/10/07 11:41:52;;;;;;;17.95;9.90;;;;;;;17.71;65.49;101213.98;2145662;82;27672;-68
2022/10/07 11:45:06;;;;;;;12.90;8.28;;;;;;;17.74;65.80;101204.30;2156639;81;29591;-66
2022/10/07 11:48:16;;;;;;;16.15;9.05;;;;;;;17.80;65.61;101198.10;2145197;81;32248;-67
2022/10/07 11:51:41;;;;;;;10.05;6.78;;;;;;;17.82;65.66;101192.95;2167597;81;33033;-68
2022/10/07 11:54:51;;;;;;;12.03;7.37;;;;;;;17.86;65.74;101186.37;2160379;81;30493;-67
2022/10/07 11:57:59;;;;;;;10.50;6.70;;;;;;;17.91;65.64;101180.16;2165631;81;27672;-68
2022/10/07 12:01:30;;;;;;;11.60;6.80;;;;;;;17.96;65.48;101174.42;2162725;81;28741;-67
2022/10/07 12:04:35;;;;;;;8.65;6.42;;;;;;;17.97;65.45;101163.97;2163146;81;31422;-66
2022/10/07 12:07:56;;;;;;;10.80;5.95;;;;;;;18.01;65.23;101151.09;2167506;81;33022;-67
2022/10/07 12:11:16;;;;;;;8.90;5.28;;;;;;;18.03;65.10;101150.05;2172646;81;30501;-67
2022/10/07 12:14:31;;;;;;;11.55;5.75;;;;;;;18.06;64.40;101148.95;2162188;81;27934;-68
2022/10/07 12:17:34;;;;;;;12.23;6.22;;;;;;;18.06;64.68;101134.89;2117698;83;29076;-68
2022/10/07 12:21:03;;;;;;;8.00;5.65;;;;;;;18.11;64.83;101127.83;2096237;84;32415;-68
2022/10/07 12:24:13;;;;;;;11.60;6.40;;;;;;;18.16;64.97;101127.00;1953582;89;33136;-67
2022/10/07 12:27:25;;;;;;;9.60;5.78;;;;;;;18.21;65.11;101126.68;1965219;89;29376;-68
2022/10/07 12:30:41;;;;;;;11.73;7.35;;;;;;;18.25;64.73;101118.72;1963993;88;27596;-68
2022/10/07 12:33:58;;;;;;;8.10;5.72;;;;;;;18.28;64.84;101114.45;2000692;87;28706;-67
2022/10/07 12:37:28;;;;;;;10.53;5.40;;;;;;;18.30;64.38;101108.43;2011333;87;32246;-67
2022/10/07 12:40:31;;;;;;;7.92;5.22;;;;;;;18.38;64.62;101099.76;1885588;93;32644;-67
2022/10/07 12:43:42;;;;;;;9.25;5.20;;;;;;;18.41;64.20;101090.05;1861213;92;29514;-68
2022/10/07 12:47:07;;;;;;;10.80;5.62;;;;;;;18.43;64.42;101089.46;1939469;90;27829;-67
2022/10/07 12:50:11;;;;;;;10.75;5.72;;;;;;;18.46;63.90;101085.15;1953618;90;29955;-67
2022/10/07 12:53:18;;;;;;;;;;;;;;;18.50;63.88;101077.18;1961551;90;32063;-67
2022/10/07 12:56:33;;;;;;;8.38;5.72;;;;;;;18.51;63.62;101072.13;1928731;90;30543;-67
2022/10/07 13:00:08;;;;;;;12.23;6.20;;;;;;;18.53;63.58;101072.05;1902926;90;27841;-67
2022/10/07 13:03:48;;;;;;;10.43;5.33;;;;;;;18.55;64.08;101058.36;1933308;90;27779;-67
2022/10/07 13:07:38;;;;;;;7.70;5.78;;;;;;;18.59;63.72;101056.66;1854788;94;29285;-66
2022/10/07 13:11:18;;;;;;;11.03;6.12;;;;;;;18.64;63.67;101060.40;1868145;94;31136;-67
2022/10/07 13:14:33;;;;;;;13.15;6.10;;;;;;;18.65;64.00;101048.09;1890632;92;34231;-67
2022/10/07 13:17:50;;;;;;;9.20;6.08;;;;;;;18.67;64.15;101044.78;1982632;86;30627;-67
2022/10/07 13:20:53;;;;;;;8.45;5.95;;;;;;;18.67;64.00;101039.36;2045652;85;27799;-67
2022/10/07 13:23:55;;;;;;;10.53;5.85;;;;;;;18.69;64.17;101033.80;2058224;85;29257;-67
2022/10/07 13:26:57;;;;;;;10.85;5.28;;;;;;;18.71;64.13;101032.33;2048959;84;31143;-67
2022/10/07 13:30:00;;;;;;;20.57;16.15;;;;;;;18.70;63.68;101023.33;2128367;81;32992;-67
2022/10/07 13:33:30;;;;;;;8.88;5.33;;;;;;;18.73;63.80;101022.22;2146263;80;29327;-67
2022/10/07 13:36:37;;;;;;;10.80;5.22;;;;;;;18.71;63.20;101012.85;2138882;81;27874;-67
2022/10/07 13:39:38;;;;;;;10.30;4.80;;;;;;;18.72;63.47;101005.56;2123922;81;29143;-66
2022/10/07 13:42:40;;;;;;;11.50;6.10;;;;;;;18.73;63.30;100997.33;2147447;81;32345;-67
2022/10/07 13:45:44;;;;;;;10.15;6.15;;;;;;;18.74;63.45;100994.11;2179114;80;33024;-66
2022/10/07 13:48:47;;;;;;;11.28;5.72;;;;;;;18.73;63.09;100990.54;2180496;81;29409;-67
2022/10/07 13:51:48;;;;;;;10.15;5.37;;;;;;;18.74;63.44;100981.42;2186402;80;27690;-68
2022/10/07 13:54:51;;;;;;;8.95;5.65;;;;;;;18.75;63.18;100972.77;2170993;81;30900;-67
2022/10/07 13:57:56;;;;;;;13.48;5.60;;;;;;;18.74;63.12;100966.48;2191258;80;31045;-67
2022/10/07 14:00:58;;;;;;;12.35;5.90;;;;;;;18.74;63.29;100959.70;2195728;80;32971;-66
2022/10/07 14:04:09;;;;;;;11.78;5.53;;;;;;;18.73;62.95;100950.30;2184876;80;30083;-67
2022/10/07 14:07:20;;;;;;;12.75;6.75;;;;;;;18.74;63.25;100950.67;2187548;80;27693;-67
2022/10/07 14:10:27;;;;;;;14.58;6.30;;;;;;;18.75;63.23;100948.34;2173906;80;29552;-67
2022/10/07 14:13:30;;;;;;;14.90;6.60;;;;;;;18.73;63.23;100940.80;2162751;81;31061;-67
2022/10/07 14:16:31;;;;;;;14.07;6.92;;;;;;;18.73;63.19;100935.37;2171048;81;32985;-68
2022/10/07 14:19:33;;;;;;;12.07;6.65;;;;;;;18.70;63.26;100931.05;2208625;79;29716;-67
2022/10/07 14:22:40;;;;;;;10.20;5.70;;;;;;;18.68;63.02;100931.64;2207318;80;27668;-67
2022/10/07 14:25:54;;;;;;;14.70;9.95;;;;;;;18.66;63.37;100924.10;2182901;81;29929;-67
2022/10/07 14:28:55;;;;;;;12.05;8.45;;;;;;;18.65;63.63;100914.22;2170948;81;31020;-67
2022/10/07 14:35:34;;;;;;;11.50;6.35;;;;;;;18.59;63.02;100912.84;2179349;80;30514;-67
2022/10/07 14:38:36;;;;;;;10.23;7.03;;;;;;;18.57;63.47;100908.52;2176394;80;27758;-67
2022/10/07 14:41:37;;;;;;;15.63;7.42;;;;;;;18.57;63.49;100906.66;2180296;80;29048;-67